Time;durP1;ratioP1;P1;durP2;ratioP2;P2;SDS_P1;SDS_P2;PMS_P1;PMS_P2;Temp;Humidity;BMP_temperature;BMP_pressure;BME280_temperature;BME280_humidity;BME280_pressure;Samples;Min_cycle;Max_cycle;Signal;HPM_P1;HPM_P2
2021/06/02 00:01:59;;;;;;;4.70;4.30;;;15.00;90.00;;;;;;5004622;28;20430;-75
2021/06/02 00:04:28;;;;;;;5.73;4.87;;;15.00;90.30;;;;;;5011597;28;20469;-74
2021/06/02 00:07:04;;;;;;;5.57;5.07;;;14.90;90.40;;;;;;4995056;28;20458;-73
2021/06/02 00:09:32;;;;;;;12.00;4.83;;;14.80;90.50;;;;;;4993718;28;20497;-72
2021/06/02 00:12:04;;;;;;;5.20;4.73;;;14.80;90.40;;;;;;4999894;28;20435;-74
2021/06/02 00:14:31;;;;;;;5.10;4.70;;;14.80;90.10;;;;;;4996255;28;20457;-74
2021/06/02 00:16:59;;;;;;;5.27;4.77;;;14.90;89.80;;;;;;5014379;28;20530;-72
2021/06/02 00:19:28;;;;;;;4.70;4.30;;;14.70;89.30;;;;;;5007182;28;20550;-72
2021/06/02 00:21:57;;;;;;;5.57;4.57;;;14.70;89.00;;;;;;5004741;28;20534;-72
2021/06/02 00:24:25;;;;;;;6.60;4.33;;;14.80;88.20;;;;;;5006632;28;20840;-74
2021/06/02 00:26:54;;;;;;;5.73;4.07;;;14.70;87.90;;;;;;4995047;28;20456;-73
2021/06/02 00:29:32;;;;;;;4.60;4.20;;;14.70;88.30;;;;;;4993332;28;20843;-73
2021/06/02 00:32:01;;;;;;;4.50;4.10;;;14.60;88.70;;;;;;5004720;28;20534;-74
2021/06/02 00:34:29;;;;;;;5.90;4.60;;;14.50;89.80;;;;;;5008034;28;20471;-75
2021/06/02 00:36:59;;;;;;;5.53;5.03;;;14.50;90.10;;;;;;4993545;28;21002;-73
2021/06/02 00:39:27;;;;;;;5.00;4.50;;;14.50;90.30;;;;;;5009604;28;21049;-73
2021/06/02 00:41:54;;;;;;;5.90;5.27;;;14.40;90.10;;;;;;5000440;28;20541;-73
2021/06/02 00:44:22;;;;;;;7.00;5.73;;;14.40;90.10;;;;;;4995688;28;20489;-73
2021/06/02 00:46:50;;;;;;;6.30;4.90;;;14.50;90.40;;;;;;5014137;28;20429;-73
2021/06/02 00:49:23;;;;;;;5.70;5.10;;;14.40;90.60;;;;;;5000326;28;20463;-72
2021/06/02 00:51:56;;;;;;;6.10;5.50;;;14.40;91.10;;;;;;5002373;28;20433;-74
2021/06/02 00:54:24;;;;;;;5.50;4.87;;;14.30;91.20;;;;;;4994324;28;20473;-75
2021/06/02 00:56:59;;;;;;;4.97;4.53;;;14.30;91.30;;;;;;4994834;28;20458;-73
2021/06/02 00:59:43;;;;;;;5.67;5.17;;;14.30;91.60;;;;;;4993644;28;20523;-72
2021/06/02 01:02:18;;;;;;;5.00;4.33;;;14.10;92.20;;;;;;5004930;28;20968;-75
2021/06/02 01:04:47;;;;;;;5.13;4.63;;;14.10;92.30;;;;;;5007458;28;20475;-75
2021/06/02 01:07:14;;;;;;;6.07;5.30;;;14.10;92.50;;;;;;4993963;28;20453;-73
2021/06/02 01:09:46;;;;;;;6.03;5.43;;;14.10;92.10;;;;;;5000173;28;20501;-73
2021/06/02 01:12:16;;;;;;;5.47;4.93;;;14.10;92.20;;;;;;4995743;28;20922;-75
2021/06/02 01:14:44;;;;;;;5.87;5.37;;;13.90;92.40;;;;;;5001919;28;20918;-74
2021/06/02 01:17:17;;;;;;;5.87;5.30;;;13.90;92.50;;;;;;5011912;28;20461;-73
2021/06/02 01:19:45;;;;;;;5.70;5.20;;;13.80;92.90;;;;;;5007114;28;20534;-73
2021/06/02 01:22:13;;;;;;;8.83;6.20;;;13.80;93.20;;;;;;5010407;28;20432;-74
2021/06/02 01:24:40;;;;;;;6.73;6.13;;;13.80;93.10;;;;;;5005896;28;20465;-74
2021/06/02 01:27:10;;;;;;;6.50;5.60;;;13.80;93.10;;;;;;5010120;28;20457;-73
2021/06/02 01:29:41;;;;;;;5.13;4.63;;;13.90;93.30;;;;;;5009113;28;21049;-74
2021/06/02 01:32:17;;;;;;;6.03;5.50;;;13.80;93.30;;;;;;5004430;28;21000;-73
2021/06/02 01:35:05;;;;;;;6.13;5.20;;;13.80;93.50;;;;;;5021066;28;20475;-74
2021/06/02 01:37:48;;;;;;;5.57;5.07;;;13.70;93.50;;;;;;5008207;28;20540;-74
2021/06/02 01:40:27;;;;;;;5.67;5.10;;;13.80;93.70;;;;;;5010055;28;20466;-72
2021/06/02 01:42:56;;;;;;;6.87;4.80;;;13.70;93.60;;;;;;4995663;28;20788;-74
2021/06/02 01:45:50;;;;;;;7.80;5.70;;;13.60;94.10;;;;;;5003480;28;20470;-75
2021/06/02 01:48:29;;;;;;;4.93;4.53;;;13.60;94.50;;;;;;5012546;28;20444;-73
2021/06/02 01:51:33;;;;;;;5.73;4.93;;;13.50;94.20;;;;;;5010749;28;20556;-73
2021/06/02 01:54:36;;;;;;;5.50;5.00;;;13.50;94.60;;;;;;5016896;28;20950;-75
2021/06/02 01:57:34;;;;;;;5.63;5.03;;;13.40;94.80;;;;;;4980465;28;21002;-73
2021/06/02 02:00:19;;;;;;;5.27;4.77;;;13.50;94.50;;;;;;5007969;28;20481;-72
2021/06/02 02:03:24;;;;;;;6.57;4.73;;;13.50;94.50;;;;;;5023240;28;20954;-74
2021/06/02 02:06:25;;;;;;;5.60;5.10;;;13.50;94.50;;;;;;5011963;28;20539;-72
2021/06/02 02:09:11;;;;;;;6.00;5.40;;;13.50;94.50;;;;;;5010693;28;20938;-73
2021/06/02 02:11:41;;;;;;;5.57;5.07;;;13.50;94.60;;;;;;4999801;28;20834;-73
2021/06/02 02:14:32;;;;;;;6.30;5.70;;;13.30;95.10;;;;;;4991205;28;20497;-73
2021/06/02 02:17:28;;;;;;;6.70;5.37;;;13.30;95.20;;;;;;4997515;28;20970;-73
2021/06/02 02:20:18;;;;;;;6.33;5.83;;;13.30;95.20;;;;;;5011280;28;20897;-73
2021/06/02 02:23:03;;;;;;;5.00;4.60;;;13.30;95.00;;;;;;4997182;28;20528;-74
2021/06/02 02:26:01;;;;;;;5.90;5.30;;;13.20;95.10;;;;;;4995975;28;20825;-74
2021/06/02 02:28:59;;;;;;;6.80;5.80;;;13.00;96.00;;;;;;5007477;28;20438;-73
2021/06/02 02:32:03;;;;;;;5.50;5.00;;;13.00;96.60;;;;;;5010561;28;20933;-73
2021/06/02 02:34:44;;;;;;;6.97;5.60;;;13.00;96.40;;;;;;5010967;28;20464;-74
2021/06/02 02:37:30;;;;;;;10.37;6.10;;;13.00;96.40;;;;;;5002854;28;20500;-73
2021/06/02 02:40:21;;;;;;;5.97;5.50;;;13.00;96.20;;;;;;4996827;28;20483;-73
2021/06/02 02:43:05;;;;;;;4.97;4.47;;;13.00;96.50;;;;;;4992801;28;20448;-74
2021/06/02 02:45:46;;;;;;;5.77;5.27;;;13.00;96.50;;;;;;4991828;28;20549;-75
2021/06/02 02:48:38;;;;;;;5.00;4.60;;;12.90;96.70;;;;;;5009751;28;20518;-73
2021/06/02 02:51:28;;;;;;;5.83;5.23;;;12.90;96.90;;;;;;5011256;28;20456;-73
2021/06/02 02:54:18;;;;;;;6.20;5.70;;;12.90;96.70;;;;;;4990759;28;20792;-74
2021/06/02 02:56:57;;;;;;;5.97;5.37;;;12.90;96.80;;;;;;5004710;28;20799;-73
2021/06/02 02:59:46;;;;;;;6.33;5.73;;;12.80;96.80;;;;;;5010019;28;20984;-73
2021/06/02 03:02:13;;;;;;;6.57;5.43;;;12.90;97.30;;;;;;5010048;28;20520;-72
2021/06/02 03:04:48;;;;;;;7.47;6.00;;;12.80;97.50;;;;;;5002913;28;20474;-76
2021/06/02 03:07:16;;;;;;;6.97;5.93;;;12.70;97.70;;;;;;5017447;28;20466;-73
2021/06/02 03:09:53;;;;;;;5.17;4.67;;;12.70;97.70;;;;;;4989740;28;20481;-74
2021/06/02 03:12:48;;;;;;;6.03;5.40;;;12.70;97.80;;;;;;5001268;28;20437;-73
2021/06/02 03:15:38;;;;;;;6.80;5.80;;;12.70;97.80;;;;;;4991743;28;20484;-75
2021/06/02 03:18:34;;;;;;;6.20;4.90;;;12.70;98.00;;;;;;5007246;28;20546;-73
2021/06/02 03:21:07;;;;;;;6.30;5.70;;;12.60;97.90;;;;;;4983013;28;20449;-73
2021/06/02 03:24:02;;;;;;;5.47;4.97;;;12.60;98.00;;;;;;5006971;28;20441;-73
2021/06/02 03:26:40;;;;;;;5.73;5.23;;;12.40;98.40;;;;;;5001116;28;20448;-74
2021/06/02 03:29:13;;;;;;;6.43;5.70;;;12.40;98.70;;;;;;4993392;28;20544;-73
2021/06/02 03:31:58;;;;;;;7.70;5.33;;;12.40;98.80;;;;;;4999261;28;20425;-74
2021/06/02 03:34:31;;;;;;;6.53;5.87;;;12.40;98.90;;;;;;5014218;28;20973;-75
2021/06/02 03:37:14;;;;;;;6.17;5.57;;;12.40;98.60;;;;;;5001519;28;20517;-73
2021/06/02 03:40:11;;;;;;;6.53;5.93;;;12.40;98.80;;;;;;5013524;28;20837;-73
2021/06/02 03:42:47;;;;;;;6.27;4.90;;;12.50;98.80;;;;;;5023725;28;20535;-74
2021/06/02 03:45:36;;;;;;;5.73;4.90;;;12.50;98.60;;;;;;5014472;28;20476;-74
2021/06/02 03:48:45;;;;;;;6.47;5.93;;;12.40;99.10;;;;;;5013188;28;20450;-74
2021/06/02 03:51:56;;;;;;;8.27;6.30;;;12.40;99.20;;;;;;4979926;28;20449;-73
2021/06/02 03:54:43;;;;;;;6.27;5.67;;;12.30;99.80;;;;;;4993517;28;20940;-74
2021/06/02 03:57:36;;;;;;;7.13;5.63;;;12.30;99.30;;;;;;5019333;28;20465;-73
2021/06/02 04:00:16;;;;;;;5.70;5.10;;;12.30;99.20;;;;;;4996773;28;20492;-73
2021/06/02 04:02:52;;;;;;;7.03;5.30;;;12.30;99.60;;;;;;5002146;28;20437;-73
2021/06/02 04:05:38;;;;;;;7.93;5.90;;;12.30;99.80;;;;;;4996679;28;20583;-75
2021/06/02 04:09:02;;;;;;;6.83;5.90;;;12.30;99.80;;;;;;4998169;28;21009;-73
2021/06/02 04:11:51;;;;;;;8.20;5.80;;;12.30;99.70;;;;;;4975069;28;20459;-73
2021/06/02 04:14:57;;;;;;;5.63;5.03;;;12.30;99.90;;;;;;4959739;28;21058;-75
2021/06/02 04:17:25;;;;;;;6.60;6.00;;;12.40;99.90;;;;;;4992908;28;20465;-73
2021/06/02 04:19:53;;;;;;;12.60;6.13;;;12.50;99.90;;;;;;5025362;28;20469;-73
2021/06/02 04:22:24;;;;;;;6.93;5.40;;;12.40;99.90;;;;;;5004676;28;20958;-74
2021/06/02 04:24:54;;;;;;;8.03;6.53;;;12.50;99.90;;;;;;4993118;28;20466;-74
2021/06/02 04:27:22;;;;;;;6.70;6.10;;;12.50;99.90;;;;;;5005204;28;20475;-74
2021/06/02 04:29:51;;;;;;;8.80;6.00;;;12.50;99.90;;;;;;5014006;28;20551;-74
2021/06/02 04:32:19;;;;;;;7.70;6.63;;;12.60;99.90;;;;;;5002017;28;20440;-73
2021/06/02 04:34:46;;;;;;;7.67;5.43;;;12.60;99.90;;;;;;5004186;28;20561;-73
2021/06/02 04:37:13;;;;;;;6.93;6.23;;;12.70;99.90;;;;;;5003812;28;20461;-74
2021/06/02 04:39:43;;;;;;;6.10;5.50;;;12.70;99.90;;;;;;4992090;28;20541;-73
2021/06/02 04:42:13;;;;;;;7.33;6.00;;;12.80;99.90;;;;;;5010407;28;20445;-72
2021/06/02 04:44:40;;;;;;;7.10;6.40;;;12.80;99.90;;;;;;4995004;28;20563;-72
2021/06/02 04:47:07;;;;;;;7.33;6.50;;;12.90;99.90;;;;;;5008516;28;20453;-74
2021/06/02 04:50:00;;;;;;;6.77;5.90;;;13.00;99.90;;;;;;5008087;28;20499;-73
2021/06/02 04:52:33;;;;;;;8.00;7.20;;;13.20;99.90;;;;;;4993813;28;20445;-73
2021/06/02 04:55:38;;;;;;;7.00;5.57;;;13.20;99.90;;;;;;4997916;28;20504;-73
2021/06/02 04:58:40;;;;;;;8.23;6.23;;;13.30;99.60;;;;;;4994278;28;20488;-74
2021/06/02 05:01:29;;;;;;;8.70;6.10;;;13.40;99.60;;;;;;4989235;28;20452;-73
2021/06/02 05:04:18;;;;;;;7.23;6.53;;;13.50;99.40;;;;;;5001069;28;20964;-73
2021/06/02 05:07:28;;;;;;;7.13;6.30;;;13.60;98.60;;;;;;4992604;28;20568;-74
2021/06/02 05:10:22;;;;;;;7.10;5.90;;;13.80;99.00;;;;;;4993694;28;20469;-74
2021/06/02 05:13:30;;;;;;;7.37;5.60;;;13.90;99.80;;;;;;5009120;28;20418;-73
2021/06/02 05:16:06;;;;;;;7.10;5.50;;;14.00;99.30;;;;;;5008751;28;20468;-74
2021/06/02 05:19:20;;;;;;;6.93;5.93;;;14.10;98.30;;;;;;4992936;28;20465;-73
2021/06/02 05:22:22;;;;;;;5.50;5.00;;;14.30;97.30;;;;;;4994017;28;20532;-73
2021/06/02 05:25:27;;;;;;;6.43;5.40;;;14.50;96.20;;;;;;5006776;28;20491;-73
2021/06/02 05:28:21;;;;;;;7.87;5.60;;;14.60;95.70;;;;;;4992322;28;20453;-74
2021/06/02 05:31:12;;;;;;;6.30;5.40;;;14.70;95.20;;;;;;4976287;28;20462;-73
2021/06/02 05:33:45;;;;;;;9.20;6.47;;;14.80;97.20;;;;;;4991609;28;20474;-72
2021/06/02 05:36:53;;;;;;;6.43;5.83;;;14.80;97.70;;;;;;4993722;28;20445;-74
2021/06/02 05:39:59;;;;;;;6.63;5.93;;;14.90;97.50;;;;;;4970589;28;20551;-74
2021/06/02 05:43:04;;;;;;;7.93;6.00;;;15.00;96.90;;;;;;5027523;28;20491;-74
2021/06/02 05:46:14;;;;;;;5.93;5.40;;;15.20;96.40;;;;;;5027580;28;20461;-75
2021/06/02 05:48:56;;;;;;;7.00;5.43;;;15.30;95.90;;;;;;4969624;28;20562;-75
2021/06/02 05:51:52;;;;;;;6.50;5.10;;;15.40;95.40;;;;;;4994433;28;20534;-73
2021/06/02 05:54:40;;;;;;;5.97;5.17;;;15.50;93.10;;;;;;5010904;28;20497;-74
2021/06/02 05:57:13;;;;;;;5.93;4.90;;;15.60;92.30;;;;;;4987358;28;20924;-74
2021/06/02 06:00:28;;;;;;;5.87;5.30;;;15.80;92.10;;;;;;5012141;28;20470;-72
2021/06/02 06:02:58;;;;;;;5.50;5.00;;;16.10;90.90;;;;;;4967425;28;20945;-73
2021/06/02 06:05:33;;;;;;;5.03;4.63;;;16.50;90.10;;;;;;5003424;28;20470;-74
2021/06/02 06:08:18;;;;;;;6.63;5.03;;;17.00;88.80;;;;;;5008399;28;20483;-73
2021/06/02 06:11:39;;;;;;;6.30;5.00;;;17.40;89.20;;;;;;5000402;28;20474;-74
2021/06/02 06:14:27;;;;;;;5.17;4.70;;;18.10;83.50;;;;;;4935406;29;20467;-73
2021/06/02 06:17:13;;;;;;;6.37;5.00;;;18.60;78.80;;;;;;4994362;28;20461;-74
2021/06/02 06:19:50;;;;;;;5.90;5.30;;;19.00;78.70;;;;;;5005307;28;20476;-73
2021/06/02 06:22:46;;;;;;;5.67;5.07;;;19.40;75.90;;;;;;5011690;28;20433;-73
2021/06/02 06:25:27;;;;;;;5.33;4.90;;;19.60;72.10;;;;;;5005972;28;20456;-73
2021/06/02 06:28:32;;;;;;;5.50;4.73;;;19.60;72.00;;;;;;5010566;28;20536;-74
2021/06/02 06:31:02;;;;;;;5.53;4.70;;;19.60;71.90;;;;;;4999635;28;20546;-75
2021/06/02 06:33:29;;;;;;;5.20;4.73;;;19.50;71.50;;;;;;4992607;28;20705;-73
2021/06/02 06:35:58;;;;;;;5.23;4.67;;;19.30;73.10;;;;;;4998199;28;20474;-73
2021/06/02 06:38:41;;;;;;;4.70;4.17;;;19.20;72.60;;;;;;4998373;28;20454;-74
2021/06/02 06:41:15;;;;;;;4.70;4.30;;;19.20;76.60;;;;;;5010395;28;20465;-74
2021/06/02 06:43:45;;;;;;;5.10;4.30;;;19.30;74.20;;;;;;5010617;28;20437;-73
2021/06/02 06:46:15;;;;;;;5.20;4.70;;;19.40;74.30;;;;;;5010600;28;20439;-73
2021/06/02 06:48:56;;;;;;;4.07;3.77;;;19.50;72.90;;;;;;5010378;28;20483;-75
2021/06/02 06:51:26;;;;;;;4.77;4.37;;;19.50;68.00;;;;;;4992701;28;20430;-73
2021/06/02 06:53:56;;;;;;;4.33;4.03;;;19.40;69.90;;;;;;4999684;28;20453;-75
2021/06/02 06:56:27;;;;;;;4.60;4.20;;;19.50;70.60;;;;;;5002491;28;20456;-73
2021/06/02 06:58:57;;;;;;;4.47;4.10;;;19.50;69.40;;;;;;5001230;28;20544;-74
2021/06/02 07:01:25;;;;;;;8.13;3.93;;;19.40;67.30;;;;;;5010746;28;20452;-72
2021/06/02 07:03:55;;;;;;;5.47;4.43;;;19.40;70.70;;;;;;5023637;28;20507;-74
2021/06/02 07:06:22;;;;;;;6.27;4.87;;;19.50;70.50;;;;;;5011196;28;20437;-74
2021/06/02 07:08:50;;;;;;;7.17;4.80;;;19.50;69.10;;;;;;5005768;28;20462;-74
2021/06/02 07:11:19;;;;;;;5.53;4.47;;;19.60;70.00;;;;;;5014866;28;20445;-75
2021/06/02 07:13:47;;;;;;;5.60;4.53;;;19.80;70.30;;;;;;5004048;28;20444;-75
2021/06/02 07:16:15;;;;;;;5.00;3.90;;;19.80;69.70;;;;;;4994724;28;20944;-73
2021/06/02 07:18:46;;;;;;;6.07;4.53;;;19.80;70.60;;;;;;4995845;28;20479;-74
2021/06/02 07:21:19;;;;;;;27.83;6.00;;;19.90;70.60;;;;;;5011211;28;20439;-74
2021/06/02 07:23:47;;;;;;;21.03;5.60;;;20.10;73.20;;;;;;5012846;28;20460;-74
2021/06/02 07:26:15;;;;;;;5.93;4.17;;;20.30;71.60;;;;;;5020701;28;20449;-74
2021/06/02 07:29:04;;;;;;;6.80;4.70;;;20.50;69.70;;;;;;5013604;28;20471;-74
2021/06/02 07:31:33;;;;;;;7.23;4.50;;;20.50;70.90;;;;;;5014056;28;20784;-75
2021/06/02 07:34:00;;;;;;;8.73;3.93;;;20.50;70.50;;;;;;5007855;28;20498;-74
2021/06/02 07:36:27;;;;;;;5.33;4.77;;;20.60;69.00;;;;;;5010246;28;20453;-74
2021/06/02 07:38:55;;;;;;;4.30;3.90;;;20.70;64.50;;;;;;5014143;28;20488;-75
2021/06/02 07:41:22;;;;;;;4.70;4.20;;;20.60;64.70;;;;;;5009829;28;20455;-73
2021/06/02 07:43:52;;;;;;;4.97;4.27;;;20.70;64.50;;;;;;5003646;28;20473;-74
2021/06/02 07:46:19;;;;;;;6.33;4.50;;;20.70;64.60;;;;;;5012616;28;20431;-74
2021/06/02 07:48:46;;;;;;;4.50;4.10;;;20.70;64.70;;;;;;5023108;28;20874;-73
2021/06/02 07:51:16;;;;;;;4.77;4.37;;;20.80;63.90;;;;;;5000888;28;20984;-74
2021/06/02 07:53:43;;;;;;;8.10;3.60;;;20.90;65.60;;;;;;5015271;28;20466;-74
2021/06/02 07:56:10;;;;;;;3.97;3.63;;;21.00;64.80;;;;;;5002735;28;20889;-73
2021/06/02 07:58:39;;;;;;;4.37;4.07;;;21.10;62.50;;;;;;5012731;28;20544;-76
2021/06/02 08:01:06;;;;;;;8.77;4.40;;;21.20;63.30;;;;;;5014788;28;20422;-74
2021/06/02 08:03:33;;;;;;;4.83;4.33;;;21.30;64.50;;;;;;5009984;28;20945;-76
2021/06/02 08:06:01;;;;;;;4.53;4.13;;;21.40;63.20;;;;;;4993862;28;20450;-74
2021/06/02 08:08:28;;;;;;;4.67;4.33;;;21.60;64.60;;;;;;4994857;28;20909;-74
2021/06/02 08:10:58;;;;;;;5.13;4.40;;;21.60;63.40;;;;;;4993447;28;20474;-74
2021/06/02 08:13:31;;;;;;;6.07;4.50;;;21.60;65.40;;;;;;5010614;28;20437;-74
2021/06/02 08:15:58;;;;;;;8.30;4.50;;;21.80;65.00;;;;;;5000650;28;20476;-74
2021/06/02 08:18:27;;;;;;;5.20;4.30;;;21.90;64.00;;;;;;5010412;28;20454;-75
2021/06/02 08:20:56;;;;;;;4.93;4.43;;;22.00;64.20;;;;;;5008783;28;20466;-75
2021/06/02 08:23:23;;;;;;;5.23;4.73;;;22.00;65.70;;;;;;4977689;28;20812;-73
2021/06/02 08:25:51;;;;;;;8.03;4.33;;;22.20;63.20;;;;;;4995649;28;20492;-73
2021/06/02 08:28:20;;;;;;;5.37;4.30;;;22.10;64.40;;;;;;5008565;28;20544;-73
2021/06/02 08:30:48;;;;;;;5.53;3.93;;;;;;;;;;5027334;28;20465;-74
2021/06/02 08:33:15;;;;;;;4.37;3.97;;;22.30;61.30;;;;;;5002820;28;20977;-74
2021/06/02 08:35:42;;;;;;;4.60;4.20;;;22.40;61.20;;;;;;4997074;28;20559;-74
2021/06/02 08:38:10;;;;;;;5.07;4.57;;;22.50;62.40;;;;;;5013681;28;20894;-74
2021/06/02 08:40:40;;;;;;;6.37;5.00;;;22.60;62.10;;;;;;5009308;28;20469;-74
2021/06/02 08:43:07;;;;;;;4.60;4.20;;;22.70;61.20;;;;;;4994514;28;20465;-75
2021/06/02 08:45:34;;;;;;;5.70;5.10;;;22.80;59.80;;;;;;4992790;28;20957;-73
2021/06/02 08:48:05;;;;;;;4.97;4.07;;;22.90;60.40;;;;;;4993981;28;20545;-74
2021/06/02 08:50:33;;;;;;;4.87;3.50;;;22.90;60.60;;;;;;5000369;28;20473;-75
2021/06/02 08:53:01;;;;;;;7.63;4.37;;;23.00;59.90;;;;;;5017507;28;20485;-74
2021/06/02 08:55:29;;;;;;;6.30;4.43;;;23.10;59.40;;;;;;5010102;28;20481;-75
2021/06/02 08:57:57;;;;;;;5.90;4.80;;;23.20;61.20;;;;;;5013495;28;20445;-74
2021/06/02 09:00:28;;;;;;;6.10;4.47;;;23.30;59.30;;;;;;5005899;28;20476;-75
2021/06/02 09:02:58;;;;;;;7.63;3.90;;;23.40;58.90;;;;;;5004230;28;20801;-74
2021/06/02 09:05:26;;;;;;;4.77;4.37;;;23.60;61.50;;;;;;4985673;28;20476;-73
2021/06/02 09:07:55;;;;;;;4.40;4.00;;;23.70;58.40;;;;;;5013213;28;20472;-75
2021/06/02 09:10:25;;;;;;;5.30;3.97;;;24.00;58.30;;;;;;5008848;28;20490;-74
2021/06/02 09:12:56;;;;;;;7.10;3.97;;;24.00;56.20;;;;;;5009163;28;20527;-74
2021/06/02 09:15:35;;;;;;;4.97;4.47;;;24.10;56.20;;;;;;5000618;28;20482;-74
2021/06/02 09:18:05;;;;;;;4.00;3.70;;;24.00;56.90;;;;;;5010655;28;20472;-74
2021/06/02 09:20:48;;;;;;;4.07;3.60;;;24.00;56.80;;;;;;5003016;28;20476;-74
2021/06/02 09:23:43;;;;;;;4.53;4.10;;;24.10;57.70;;;;;;5012189;28;20487;-74
2021/06/02 09:26:19;;;;;;;5.00;3.30;;;24.10;55.20;;;;;;5022652;28;20462;-73
2021/06/02 09:29:14;;;;;;;5.33;3.77;;;24.30;55.20;;;;;;5012224;28;20438;-72
2021/06/02 09:31:43;;;;;;;4.40;4.00;;;24.40;54.30;;;;;;5008109;28;20492;-75
2021/06/02 09:34:18;;;;;;;4.97;3.67;;;24.60;54.40;;;;;;5006380;28;20546;-73
2021/06/02 09:37:02;;;;;;;5.47;3.17;;;24.60;51.90;;;;;;5008460;28;20624;-73
2021/06/02 09:39:41;;;;;;;2.70;2.50;;;24.70;48.60;;;;;;5011319;28;20493;-75
2021/06/02 09:42:30;;;;;;;3.83;3.23;;;24.70;49.60;;;;;;5004610;28;20916;-74
2021/06/02 09:45:06;;;;;;;4.30;3.90;;;24.80;49.40;;;;;;4991683;28;20491;-75
2021/06/02 09:47:53;;;;;;;4.27;3.33;;;24.80;47.80;;;;;;4992826;28;20462;-74
2021/06/02 09:50:25;;;;;;;3.57;3.27;;;24.90;46.90;;;;;;4992227;28;20987;-74
2021/06/02 09:52:54;;;;;;;3.67;3.37;;;24.90;47.10;;;;;;4994172;28;20564;-74
2021/06/02 09:55:23;;;;;;;4.43;3.47;;;25.10;47.60;;;;;;5017962;28;20483;-74
2021/06/02 09:58:02;;;;;;;3.77;2.97;;;25.10;45.40;;;;;;5000178;28;20464;-74
2021/06/02 10:00:37;;;;;;;5.70;2.70;;;25.10;45.50;;;;;;4977764;28;20494;-74
2021/06/02 10:03:09;;;;;;;3.27;2.97;;;25.30;45.50;;;;;;5009770;28;20430;-74
2021/06/02 10:05:50;;;;;;;3.10;2.90;;;25.40;45.40;;;;;;5009936;28;20837;-75
2021/06/02 10:08:33;;;;;;;4.30;2.90;;;25.40;43.20;;;;;;5011088;28;20486;-74
2021/06/02 10:11:17;;;;;;;3.23;2.90;;;25.60;43.70;;;;;;5009005;28;20487;-74
2021/06/02 10:13:50;;;;;;;3.70;2.73;;;25.60;41.80;;;;;;5003786;28;20454;-75
2021/06/02 10:16:45;;;;;;;6.30;2.90;;;25.40;43.70;;;;;;4993132;28;20469;-74
2021/06/02 10:19:12;;;;;;;3.23;2.20;;;25.60;42.60;;;;;;5006408;28;20546;-74
2021/06/02 10:21:52;;;;;;;3.30;3.00;;;25.70;39.90;;;;;;5004640;28;20537;-75
2021/06/02 10:24:20;;;;;;;2.90;2.20;;;25.70;39.90;;;;;;5020071;28;20473;-73
2021/06/02 10:26:47;;;;;;;2.23;2.13;;;25.60;35.00;;;;;;5006424;28;20523;-74
2021/06/02 10:29:14;;;;;;;4.60;2.33;;;25.70;37.20;;;;;;5000181;28;21040;-75
2021/06/02 10:31:41;;;;;;;2.77;2.40;;;25.80;35.80;;;;;;4998315;28;20828;-74
2021/06/02 10:34:09;;;;;;;3.43;2.73;;;26.00;36.90;;;;;;4998957;28;20985;-74
2021/06/02 10:36:36;;;;;;;4.40;2.70;;;26.00;36.70;;;;;;5001370;28;20803;-74
2021/06/02 10:39:08;;;;;;;2.90;2.70;;;26.10;36.60;;;;;;4999264;28;20535;-75
2021/06/02 10:41:58;;;;;;;3.90;2.70;;;26.00;37.20;;;;;;4992877;28;20463;-74
2021/06/02 10:44:34;;;;;;;3.27;2.97;;;26.00;37.50;;;;;;4998454;28;20566;-74
2021/06/02 10:47:05;;;;;;;2.70;2.33;;;26.00;38.60;;;;;;5011927;28;20459;-74
2021/06/02 10:49:36;;;;;;;2.67;2.47;;;26.10;33.60;;;;;;5005801;28;20483;-74
2021/06/02 10:52:04;;;;;;;3.53;2.27;;;26.20;35.90;;;;;;4996479;28;20495;-75
2021/06/02 10:54:40;;;;;;;2.77;2.50;;;26.30;34.30;;;;;;4996775;28;20507;-73
2021/06/02 10:57:14;;;;;;;2.73;2.53;;;26.40;35.90;;;;;;4997563;28;20493;-74
2021/06/02 10:59:46;;;;;;;2.80;2.60;;;26.40;36.70;;;;;;5002847;28;20508;-74
2021/06/02 11:02:40;;;;;;;2.90;2.57;;;26.40;35.50;;;;;;4994311;28;20788;-74
2021/06/02 11:05:20;;;;;;;2.57;2.37;;;26.50;33.90;;;;;;5006992;28;20638;-73
2021/06/02 11:07:55;;;;;;;2.33;2.13;;;26.60;33.70;;;;;;4997133;28;20903;-74
2021/06/02 11:10:31;;;;;;;3.83;2.60;;;26.60;33.50;;;;;;4992971;28;20464;-75
2021/06/02 11:13:02;;;;;;;4.97;2.60;;;26.70;35.50;;;;;;4998108;28;20440;-74
2021/06/02 11:15:35;;;;;;;2.77;2.47;;;26.60;35.30;;;;;;5023893;28;20492;-74
2021/06/02 11:18:11;;;;;;;3.27;2.60;;;26.80;36.00;;;;;;4988366;28;20476;-74
2021/06/02 11:20:39;;;;;;;2.90;2.47;;;26.80;34.30;;;;;;4990198;28;20998;-74
2021/06/02 11:23:10;;;;;;;2.80;2.60;;;26.70;34.70;;;;;;4994852;28;20433;-73
2021/06/02 11:25:41;;;;;;;3.27;2.67;;;26.60;34.30;;;;;;4993054;28;20472;-75
2021/06/02 11:28:43;;;;;;;3.73;2.80;;;26.60;34.80;;;;;;5001042;28;20770;-75
2021/06/02 11:31:26;;;;;;;8.80;3.07;;;26.50;36.80;;;;;;4993172;28;20864;-74
2021/06/02 11:34:28;;;;;;;2.77;2.20;;;26.50;35.50;;;;;;4990507;28;20477;-73
2021/06/02 11:37:01;;;;;;;4.17;3.27;;;26.70;35.90;;;;;;4987374;28;20555;-74
2021/06/02 11:39:29;;;;;;;4.40;2.40;;;26.80;35.20;;;;;;4994499;28;20469;-75
2021/06/02 11:41:58;;;;;;;2.40;2.20;;;26.80;35.50;;;;;;5002383;28;20442;-74
2021/06/02 11:44:33;;;;;;;5.17;2.60;;;26.80;35.30;;;;;;4992502;28;20473;-73
2021/06/02 11:47:01;;;;;;;5.23;2.40;;;26.80;34.00;;;;;;4993102;28;20465;-73
2021/06/02 11:49:33;;;;;;;4.70;2.40;;;26.80;34.50;;;;;;5002288;28;20457;-74
2021/06/02 11:52:11;;;;;;;3.30;3.10;;;27.00;33.50;;;;;;5013033;28;20437;-73
2021/06/02 11:54:52;;;;;;;3.37;3.07;;;27.10;32.40;;;;;;5012217;28;20449;-74
2021/06/02 11:57:29;;;;;;;3.10;2.80;;;27.10;34.00;;;;;;5000681;28;20535;-74
2021/06/02 12:00:21;;;;;;;2.57;2.37;;;27.10;34.10;;;;;;4995207;28;20472;-74
2021/06/02 12:02:56;;;;;;;3.20;2.07;;;27.10;32.30;;;;;;4999575;28;20426;-74
2021/06/02 12:05:31;;;;;;;2.93;2.67;;;27.10;31.60;;;;;;5012553;28;20509;-74
2021/06/02 12:08:13;;;;;;;9.53;3.83;;;27.10;33.20;;;;;;5008476;28;20460;-73
2021/06/02 12:10:43;;;;;;;3.60;2.80;;;27.10;34.00;;;;;;5009408;28;20472;-74
2021/06/02 12:13:22;;;;;;;3.50;2.50;;;27.00;34.50;;;;;;5006443;28;21026;-74
2021/06/02 12:15:57;;;;;;;5.60;2.80;;;27.00;35.60;;;;;;4992987;28;21052;-73
2021/06/02 12:18:34;;;;;;;6.03;2.63;;;26.90;35.30;;;;;;5001665;28;20456;-75
2021/06/02 12:21:11;;;;;;;2.70;2.47;;;27.10;32.60;;;;;;4999974;28;20580;-74
2021/06/02 12:24:00;;;;;;;2.90;2.70;;;27.20;34.20;;;;;;5011866;28;20486;-74
2021/06/02 12:26:39;;;;;;;5.10;3.47;;;27.20;34.50;;;;;;4998317;28;20507;-75
2021/06/02 12:29:11;;;;;;;11.40;4.00;;;27.20;32.80;;;;;;5003266;28;20519;-74
2021/06/02 12:31:48;;;;;;;5.23;2.77;;;27.20;34.90;;;;;;5004354;28;20525;-74
2021/06/02 12:34:20;;;;;;;3.37;2.70;;;27.20;35.10;;;;;;5024909;28;21006;-73
2021/06/02 12:37:16;;;;;;;2.67;2.47;;;27.30;32.70;;;;;;5016148;28;20501;-74
2021/06/02 12:39:46;;;;;;;5.80;3.07;;;27.40;33.50;;;;;;5010988;28;20460;-73
2021/06/02 12:42:13;;;;;;;9.07;3.30;;;27.40;34.60;;;;;;5028549;28;20453;-74
2021/06/02 12:44:40;;;;;;;4.20;2.70;;;27.40;34.40;;;;;;5028579;28;20460;-74
2021/06/02 12:47:17;;;;;;;6.97;3.60;;;27.50;35.40;;;;;;5028752;28;20457;-74
2021/06/02 12:49:48;;;;;;;5.53;2.97;;;27.40;35.90;;;;;;5001564;28;21095;-74
2021/06/02 12:52:35;;;;;;;4.83;2.50;;;27.50;34.30;;;;;;5005289;28;20428;-74
2021/06/02 12:55:07;;;;;;;4.83;3.10;;;27.40;33.90;;;;;;5011503;28;20475;-74
2021/06/02 12:57:34;;;;;;;3.20;2.80;;;27.50;34.80;;;;;;4977165;28;20979;-74
2021/06/02 13:00:05;;;;;;;2.70;2.50;;;27.50;34.60;;;;;;4993089;28;20823;-74
2021/06/02 13:02:34;;;;;;;4.07;2.50;;;27.50;34.40;;;;;;4998891;28;20445;-74
2021/06/02 13:05:03;;;;;;;5.70;3.17;;;27.50;34.50;;;;;;5001374;28;20563;-74
2021/06/02 13:07:36;;;;;;;3.87;2.37;;;27.40;35.40;;;;;;5012114;28;20463;-74
2021/06/02 13:10:30;;;;;;;3.03;2.50;;;27.40;35.40;;;;;;5001422;28;20469;-74
2021/06/02 13:13:00;;;;;;;3.33;3.00;;;27.40;33.70;;;;;;5009360;28;20424;-73
2021/06/02 13:15:33;;;;;;;3.10;2.43;;;27.50;33.30;;;;;;5003495;28;20461;-74
2021/06/02 13:18:04;;;;;;;5.77;2.43;;;27.40;34.30;;;;;;5011782;28;20449;-75
2021/06/02 13:20:40;;;;;;;4.30;2.47;;;27.50;35.60;;;;;;4994540;28;20466;-74
2021/06/02 13:23:15;;;;;;;4.37;3.07;;;27.40;35.60;;;;;;4994280;28;20445;-74
2021/06/02 13:25:56;;;;;;;3.20;2.53;;;27.40;34.20;;;;;;5005367;28;20810;-74
2021/06/02 13:28:23;;;;;;;4.80;2.97;;;27.40;34.20;;;;;;4993906;28;20549;-75
2021/06/02 13:30:56;;;;;;;3.47;2.80;;;27.40;32.90;;;;;;5009287;28;20481;-74
2021/06/02 13:33:23;;;;;;;4.83;2.47;;;27.50;32.10;;;;;;5020054;28;20464;-74
2021/06/02 13:36:02;;;;;;;4.57;2.90;;;27.50;33.50;;;;;;5006508;28;20560;-74
2021/06/02 13:38:30;;;;;;;2.57;2.37;;;27.50;32.70;;;;;;5007562;28;20454;-73
2021/06/02 13:40:58;;;;;;;3.03;2.30;;;27.50;33.40;;;;;;4975798;28;20465;-73
2021/06/02 13:43:30;;;;;;;3.80;2.70;;;27.40;33.70;;;;;;4987380;28;20433;-74